createdAt,value
2022-12-28T00:01:48.677Z,3.80
2022-12-28T00:04:16.142Z,3.80
2022-12-28T00:06:43.186Z,3.86
2022-12-28T00:09:12.950Z,3.90
2022-12-28T00:11:40.520Z,3.96
2022-12-28T00:14:08.306Z,4.01
2022-12-28T00:16:40.332Z,4.03
2022-12-28T00:19:16.327Z,4.10
2022-12-28T00:21:45.512Z,4.10
2022-12-28T00:24:25.090Z,4.14
2022-12-28T00:26:53.008Z,4.21
2022-12-28T00:29:20.214Z,4.19
2022-12-28T00:31:47.449Z,4.25
2022-12-28T00:34:14.976Z,4.25
2022-12-28T00:37:10.863Z,4.32
2022-12-28T00:39:29.504Z,4.30
2022-12-28T00:41:56.618Z,4.30
2022-12-28T00:44:23.708Z,4.31
2022-12-28T00:46:50.894Z,4.32
2022-12-28T00:49:18.105Z,4.30
2022-12-28T00:51:45.281Z,4.33
2022-12-28T00:54:12.782Z,4.33
2022-12-28T00:56:44.839Z,4.31
2022-12-28T00:59:12.393Z,4.35
2022-12-28T01:01:40.621Z,4.33
2022-12-28T01:04:07.799Z,4.35
2022-12-28T01:06:34.875Z,4.16
2022-12-28T01:09:02.196Z,4.30
2022-12-28T01:11:31.588Z,4.34
2022-12-28T01:14:01.976Z,4.39
2022-12-28T01:16:36.399Z,4.40
2022-12-28T01:19:08.161Z,4.41
2022-12-28T01:21:37.140Z,4.41
2022-12-28T01:24:07.932Z,4.42
2022-12-28T01:26:35.652Z,4.47
2022-12-28T01:29:03.578Z,4.44
2022-12-28T01:31:30.658Z,4.49
2022-12-28T01:33:57.770Z,4.49
2022-12-28T01:36:31.475Z,4.50
2022-12-28T01:39:06.455Z,4.56
2022-12-28T01:41:39.854Z,4.47
2022-12-28T01:44:15.749Z,4.55
2022-12-28T01:46:53.635Z,4.55
2022-12-28T01:49:30.143Z,4.60
2022-12-28T01:52:09.794Z,4.62
2022-12-28T01:55:07.464Z,4.60
2022-12-28T01:58:18.164Z,4.61
2022-12-28T02:00:45.421Z,4.57
2022-12-28T02:03:22.943Z,4.59
2022-12-28T02:05:56.516Z,4.66
2022-12-28T02:08:38.640Z,4.59
2022-12-28T02:11:06.732Z,4.60
2022-12-28T02:13:34.413Z,4.60
2022-12-28T02:16:01.908Z,4.58
2022-12-28T02:18:29.211Z,4.56
2022-12-28T02:21:05.037Z,4.49
2022-12-28T02:23:43.040Z,4.47
2022-12-28T02:27:08.213Z,4.42
2022-12-28T02:30:21.732Z,4.33
2022-12-28T02:33:18.949Z,4.23
2022-12-28T02:36:30.144Z,4.20
2022-12-28T02:39:09.000Z,4.24
2022-12-28T02:41:40.121Z,4.23
2022-12-28T02:44:07.814Z,4.26
2022-12-28T02:46:54.817Z,4.26
2022-12-28T02:49:46.822Z,4.24
2022-12-28T02:52:41.085Z,4.19
2022-12-28T02:56:47.593Z,4.13
2022-12-28T02:59:57.575Z,4.12
2022-12-28T03:03:15.608Z,4.09
2022-12-28T03:06:54.952Z,4.08
2022-12-28T03:09:49.890Z,4.10
2022-12-28T03:12:51.514Z,4.07
2022-12-28T03:15:32.115Z,4.10
2022-12-28T03:18:32.292Z,4.00
2022-12-28T03:21:25.321Z,4.05
2022-12-28T03:24:13.246Z,4.04
2022-12-28T03:27:06.524Z,4.02
2022-12-28T03:30:03.111Z,4.00
2022-12-28T03:32:30.404Z,3.95
2022-12-28T03:34:57.538Z,3.89
2022-12-28T03:37:54.064Z,3.93
2022-12-28T03:40:48.324Z,3.93
2022-12-28T03:43:42.744Z,3.90
2022-12-28T03:46:38.494Z,3.86
2022-12-28T03:49:08.436Z,3.83
2022-12-28T03:51:35.571Z,3.86
2022-12-28T03:54:02.654Z,3.82
2022-12-28T03:56:29.670Z,3.75
2022-12-28T03:58:57.935Z,3.75
2022-12-28T04:01:25.130Z,3.83
2022-12-28T04:03:52.189Z,3.79
2022-12-28T04:06:20.612Z,3.79
2022-12-28T04:08:48.204Z,3.80
2022-12-28T04:11:15.351Z,3.71
2022-12-28T04:13:42.340Z,3.72
2022-12-28T04:16:13.875Z,3.67
2022-12-28T04:18:44.784Z,3.68
2022-12-28T04:21:13.899Z,3.72
2022-12-28T04:23:43.754Z,3.67
2022-12-28T04:26:15.479Z,3.68
2022-12-28T04:28:43.678Z,3.67
2022-12-28T04:31:14.322Z,3.65
2022-12-28T04:33:41.551Z,3.68
2022-12-28T04:36:17.291Z,3.62
2022-12-28T04:38:44.628Z,3.69
2022-12-28T04:41:12.697Z,3.69
2022-12-28T04:43:40.230Z,3.71
2022-12-28T04:46:12.890Z,3.68
2022-12-28T04:48:40.545Z,3.70
2022-12-28T04:51:17.533Z,3.70
2022-12-28T04:53:44.700Z,3.69
2022-12-28T04:56:14.345Z,3.70
2022-12-28T04:58:42.080Z,3.67
2022-12-28T05:01:13.148Z,3.68
2022-12-28T05:03:43.303Z,3.65
2022-12-28T05:06:20.284Z,3.65
2022-12-28T05:08:48.250Z,3.66
2022-12-28T05:11:21.659Z,3.66
2022-12-28T05:13:49.681Z,3.64
2022-12-28T05:16:24.350Z,3.65
2022-12-28T05:18:51.587Z,3.68
2022-12-28T05:21:26.680Z,3.72
2022-12-28T05:23:54.586Z,3.67
2022-12-28T05:26:26.960Z,3.70
2022-12-28T05:28:55.141Z,3.72
2022-12-28T05:31:24.199Z,3.79
2022-12-28T05:33:51.887Z,3.71
2022-12-28T05:36:24.231Z,3.80
2022-12-28T05:38:52.550Z,3.80
2022-12-28T05:41:25.888Z,3.77
2022-12-28T05:43:54.666Z,3.84
2022-12-28T05:46:31.818Z,3.85
2022-12-28T05:48:59.895Z,3.82
2022-12-28T05:51:32.185Z,3.88
2022-12-28T05:54:01.439Z,3.81
2022-12-28T05:56:30.463Z,3.83
2022-12-28T05:59:02.245Z,3.84
2022-12-28T06:01:34.413Z,3.86
2022-12-28T06:04:11.971Z,3.87
2022-12-28T06:06:39.026Z,3.89
2022-12-28T06:09:06.200Z,3.92
2022-12-28T06:11:33.337Z,3.95
2022-12-28T06:14:03.502Z,3.92
2022-12-28T06:16:36.239Z,3.96
2022-12-28T06:19:11.269Z,3.86
2022-12-28T06:21:41.322Z,3.96
2022-12-28T06:24:10.443Z,3.96
2022-12-28T06:26:40.259Z,4.02
2022-12-28T06:29:08.085Z,3.96
2022-12-28T06:31:40.239Z,3.97
2022-12-28T06:34:09.708Z,4.02
2022-12-28T06:36:41.777Z,4.01
2022-12-28T06:39:13.852Z,4.05
2022-12-28T06:41:41.900Z,4.12
2022-12-28T06:44:12.624Z,4.05
2022-12-28T06:46:40.311Z,4.14
2022-12-28T06:49:08.142Z,4.23
2022-12-28T06:51:40.503Z,4.20
2022-12-28T06:54:12.710Z,4.23
2022-12-28T06:56:40.335Z,4.28
2022-12-28T06:59:07.886Z,4.31
2022-12-28T07:01:40.167Z,4.30
2022-12-28T07:04:10.256Z,4.30
2022-12-28T07:06:44.066Z,4.28
2022-12-28T07:09:15.547Z,4.25
2022-12-28T07:11:49.477Z,4.25
2022-12-28T07:14:16.532Z,4.32
2022-12-28T07:16:43.626Z,4.27
2022-12-28T07:19:11.094Z,4.27
2022-12-28T07:21:40.332Z,4.30
2022-12-28T07:24:08.979Z,4.25
2022-12-28T07:26:38.217Z,4.24
2022-12-28T07:29:08.428Z,4.28
2022-12-28T07:31:45.400Z,4.29
2022-12-28T07:34:15.944Z,4.29
2022-12-28T07:36:43.722Z,4.31
2022-12-28T07:39:10.826Z,4.37
2022-12-28T07:41:37.920Z,4.40
2022-12-28T07:44:05.663Z,4.43
2022-12-28T07:46:36.732Z,4.44
2022-12-28T07:49:04.873Z,4.51
2022-12-28T07:51:36.024Z,4.54
2022-12-28T07:54:03.964Z,4.58
2022-12-28T07:59:02.807Z,4.57
2022-12-28T08:01:34.400Z,4.59
2022-12-28T08:04:06.306Z,4.65
2022-12-28T08:06:40.822Z,4.65
2022-12-28T08:09:11.156Z,4.63
2022-12-28T08:11:45.101Z,4.64
2022-12-28T08:14:12.954Z,4.66
2022-12-28T08:19:25.639Z,4.68
2022-12-28T08:21:52.679Z,4.74
2022-12-28T08:24:20.974Z,4.81
2022-12-28T08:26:49.151Z,4.84
2022-12-28T08:29:21.848Z,4.81
2022-12-28T08:31:49.894Z,4.86
2022-12-28T08:34:27.105Z,4.98
2022-12-28T08:36:56.574Z,5.07
2022-12-28T08:39:23.703Z,5.04
2022-12-28T08:41:50.965Z,5.16
2022-12-28T08:44:18.832Z,5.21
2022-12-28T08:46:46.060Z,5.17
2022-12-28T08:49:13.403Z,5.17
2022-12-28T08:51:42.399Z,5.18
2022-12-28T08:54:13.509Z,5.24
2022-12-28T08:56:43.995Z,5.26
2022-12-28T08:59:19.095Z,5.25
2022-12-28T09:01:47.423Z,5.27
2022-12-28T09:04:21.818Z,5.31
2022-12-28T09:06:49.921Z,5.35
2022-12-28T09:09:19.799Z,5.45
2022-12-28T09:11:48.557Z,5.46
2022-12-28T09:14:23.259Z,5.53
2022-12-28T09:16:53.171Z,5.50
2022-12-28T09:19:22.458Z,5.58
2022-12-28T09:21:52.579Z,5.51
2022-12-28T09:24:19.888Z,5.52
2022-12-28T09:26:47.125Z,5.52
2022-12-28T09:29:14.886Z,5.60
2022-12-28T09:31:44.300Z,5.56
2022-12-28T09:37:01.546Z,5.65
2022-12-28T09:39:29.313Z,5.71
2022-12-28T09:42:30.002Z,5.78
2022-12-28T09:45:13.143Z,5.81
2022-12-28T09:47:56.063Z,5.87
2022-12-28T09:50:32.108Z,5.94
2022-12-28T09:53:32.972Z,5.94
2022-12-28T09:56:41.229Z,5.97
2022-12-28T09:59:16.202Z,5.98
2022-12-28T10:01:48.229Z,6.05
2022-12-28T10:04:15.476Z,6.11
2022-12-28T10:06:43.992Z,6.19
2022-12-28T10:09:31.207Z,6.30
2022-12-28T10:12:01.093Z,6.29
2022-12-28T10:14:35.464Z,6.28
2022-12-28T10:17:05.336Z,6.31
2022-12-28T10:19:32.822Z,6.32
2022-12-28T10:22:06.882Z,6.40
2022-12-28T10:24:34.525Z,6.38
2022-12-28T10:27:07.155Z,6.42
2022-12-28T10:29:35.246Z,6.39
2022-12-28T10:32:14.784Z,6.51
2022-12-28T10:35:02.157Z,6.51
2022-12-28T10:37:37.442Z,6.39
2022-12-28T10:40:30.823Z,6.49
2022-12-28T10:43:01.213Z,6.51
2022-12-28T10:45:47.704Z,6.54
2022-12-28T10:48:24.908Z,6.58
2022-12-28T10:50:58.006Z,6.45
2022-12-28T10:53:42.009Z,6.46
2022-12-28T10:56:15.087Z,6.50
2022-12-28T10:58:48.272Z,6.50
2022-12-28T11:01:17.843Z,6.64
2022-12-28T11:03:59.511Z,6.78
2022-12-28T11:06:33.112Z,6.90
2022-12-28T11:09:26.736Z,7.02
2022-12-28T11:12:15.673Z,7.07
2022-12-28T11:14:42.801Z,7.14
2022-12-28T11:17:26.848Z,7.06
2022-12-28T11:20:38.206Z,7.08
2022-12-28T11:23:14.265Z,7.15
2022-12-28T11:25:42.647Z,7.19
2022-12-28T11:28:27.724Z,7.14
2022-12-28T11:30:55.744Z,7.22
2022-12-28T11:33:49.250Z,7.23
2022-12-28T11:36:26.695Z,7.32
2022-12-28T11:38:56.728Z,7.41
2022-12-28T11:41:35.733Z,7.45
2022-12-28T11:44:05.025Z,7.51
2022-12-28T11:46:31.886Z,7.50
2022-12-28T11:49:21.293Z,7.52
2022-12-28T11:52:08.691Z,7.65
2022-12-28T11:54:50.110Z,7.69
2022-12-28T11:57:38.091Z,7.78
2022-12-28T12:00:22.345Z,7.77
2022-12-28T12:03:01.012Z,7.87
2022-12-28T12:05:37.304Z,7.94
2022-12-28T12:08:14.294Z,7.91
2022-12-28T12:10:49.306Z,8.07
2022-12-28T12:13:25.554Z,8.12
2022-12-28T12:16:05.228Z,8.15
2022-12-28T12:18:50.607Z,8.28
2022-12-28T12:21:40.290Z,8.36
2022-12-28T12:24:29.290Z,8.27
2022-12-28T12:27:15.470Z,8.44
2022-12-28T12:29:51.058Z,8.47
2022-12-28T12:32:54.210Z,8.39
2022-12-28T12:35:29.282Z,8.34
2022-12-28T12:38:27.315Z,8.05
2022-12-28T12:41:56.297Z,8.18
2022-12-28T12:44:57.211Z,8.02
2022-12-28T12:47:55.956Z,7.99
2022-12-28T12:51:04.993Z,8.02
2022-12-28T12:54:24.283Z,8.04
2022-12-28T12:57:17.259Z,8.07
2022-12-28T13:00:24.359Z,8.08
2022-12-28T13:04:05.695Z,8.11
2022-12-28T13:06:39.746Z,8.21
2022-12-28T13:09:13.451Z,8.27
2022-12-28T13:11:42.881Z,8.38
2022-12-28T13:14:21.103Z,8.44
2022-12-28T13:16:56.941Z,8.46
2022-12-28T13:19:29.921Z,8.53
2022-12-28T13:21:59.225Z,8.62
2022-12-28T13:24:34.783Z,8.50
2022-12-28T13:27:07.637Z,8.56
2022-12-28T13:29:40.346Z,8.61
2022-12-28T13:32:36.172Z,8.61
2022-12-28T13:35:29.642Z,8.69
2022-12-28T13:38:15.316Z,8.74
2022-12-28T13:40:53.660Z,8.87
2022-12-28T13:43:56.752Z,8.97
2022-12-28T13:46:25.796Z,8.93
2022-12-28T13:48:57.910Z,8.83
2022-12-28T13:51:26.516Z,8.83
2022-12-28T13:54:00.206Z,8.86
2022-12-28T13:56:29.849Z,8.76
2022-12-28T13:59:04.912Z,8.79
2022-12-28T14:01:42.329Z,8.78
2022-12-28T14:07:03.505Z,8.84
2022-12-28T14:09:30.880Z,8.84
2022-12-28T14:11:58.277Z,8.83
2022-12-28T14:14:25.772Z,8.79
2022-12-28T14:16:52.934Z,8.75
2022-12-28T14:19:20.159Z,8.61
2022-12-28T14:21:47.409Z,8.54
2022-12-28T14:24:16.567Z,8.55
2022-12-28T14:26:53.760Z,8.59
2022-12-28T14:29:36.137Z,8.53
2022-12-28T14:32:13.993Z,8.51
2022-12-28T14:34:41.187Z,8.51
2022-12-28T14:37:35.252Z,8.43
2022-12-28T14:40:07.072Z,8.27
2022-12-28T14:42:35.368Z,8.36
2022-12-28T14:48:46.519Z,8.26
2022-12-28T14:51:17.492Z,8.31
2022-12-28T14:53:45.510Z,8.28
2022-12-28T14:56:19.226Z,8.23
2022-12-28T14:58:58.215Z,8.20
2022-12-28T15:01:39.572Z,8.20
2022-12-28T15:04:06.743Z,8.20
2022-12-28T15:06:34.685Z,8.24
2022-12-28T15:09:06.415Z,8.23
2022-12-28T15:11:33.661Z,8.24
2022-12-28T15:14:00.812Z,8.22
2022-12-28T15:16:27.908Z,8.18
2022-12-28T15:18:55.129Z,8.15
2022-12-28T15:21:24.268Z,8.18
2022-12-28T15:23:54.452Z,8.11
2022-12-28T15:26:24.186Z,8.13
2022-12-28T15:28:51.746Z,8.11
2022-12-28T15:31:22.370Z,8.06
2022-12-28T15:33:49.771Z,8.12
2022-12-28T15:36:20.849Z,8.03
2022-12-28T15:38:52.050Z,8.08
2022-12-28T15:41:37.749Z,8.04
2022-12-28T15:44:05.464Z,8.05
2022-12-28T15:46:33.061Z,8.01
2022-12-28T15:49:03.818Z,7.97
2022-12-28T15:51:31.404Z,7.89
2022-12-28T15:53:58.517Z,7.91
2022-12-28T15:56:33.777Z,7.90
2022-12-28T15:59:03.896Z,7.94
2022-12-28T16:01:32.975Z,7.88
2022-12-28T16:04:02.454Z,7.86
2022-12-28T16:06:37.093Z,7.84
2022-12-28T16:09:07.498Z,7.77
2022-12-28T16:11:34.747Z,7.73
2022-12-28T16:14:06.504Z,7.68
2022-12-28T16:16:39.693Z,7.75
2022-12-28T16:19:08.748Z,7.77
2022-12-28T16:21:36.425Z,7.75
2022-12-28T16:24:03.794Z,7.77
2022-12-28T16:26:31.163Z,7.80
2022-12-28T16:29:00.957Z,7.79
2022-12-28T16:31:37.514Z,7.80
2022-12-28T16:34:10.845Z,7.81
2022-12-28T16:36:38.249Z,7.81
2022-12-28T16:39:11.740Z,7.82
2022-12-28T16:41:38.927Z,7.82
2022-12-28T16:44:20.679Z,7.83
2022-12-28T16:46:49.199Z,7.87
2022-12-28T16:49:18.217Z,7.85
2022-12-28T16:51:47.281Z,7.81
2022-12-28T16:54:21.364Z,7.89
2022-12-28T16:56:50.097Z,7.91
2022-12-28T16:59:24.511Z,7.91
2022-12-28T17:01:56.859Z,7.97
2022-12-28T17:04:24.216Z,8.04
2022-12-28T17:06:52.564Z,8.00
2022-12-28T17:09:20.810Z,8.02
2022-12-28T17:11:50.293Z,8.06
2022-12-28T17:14:35.855Z,8.04
2022-12-28T17:17:05.952Z,7.99
2022-12-28T17:19:33.227Z,7.99
2022-12-28T17:22:00.337Z,7.96
2022-12-28T17:24:27.623Z,7.89
2022-12-28T17:26:54.749Z,7.98
2022-12-28T17:29:22.347Z,7.99
2022-12-28T17:31:49.757Z,7.91
2022-12-28T17:34:17.033Z,7.94
2022-12-28T17:36:44.082Z,7.96
2022-12-28T17:39:11.185Z,7.91
2022-12-28T17:41:38.348Z,7.95
2022-12-28T17:44:05.730Z,7.91
2022-12-28T17:46:33.197Z,7.81
2022-12-28T17:49:00.966Z,7.79
2022-12-28T17:51:29.405Z,7.70
2022-12-28T17:53:57.260Z,7.72
2022-12-28T17:56:24.562Z,7.71
2022-12-28T17:58:57.199Z,7.71
2022-12-28T18:01:26.388Z,7.65
2022-12-28T18:03:54.688Z,7.68
2022-12-28T18:06:22.234Z,7.68
2022-12-28T18:08:49.346Z,7.71
2022-12-28T18:11:16.819Z,7.72
2022-12-28T18:13:47.366Z,7.70
2022-12-28T18:16:19.961Z,7.73
2022-12-28T18:18:47.307Z,7.80
2022-12-28T18:21:21.746Z,7.75
2022-12-28T18:23:52.891Z,7.82
2022-12-28T18:26:28.193Z,7.84
2022-12-28T18:28:56.567Z,7.82
2022-12-28T18:31:25.242Z,7.84
2022-12-28T18:33:53.076Z,7.79
2022-12-28T18:36:23.014Z,7.75
2022-12-28T18:38:50.374Z,7.76
2022-12-28T18:41:21.083Z,7.72
2022-12-28T18:43:51.000Z,7.72
2022-12-28T18:46:19.012Z,7.70
2022-12-28T18:48:46.220Z,7.70
2022-12-28T18:51:17.667Z,7.74
2022-12-28T18:53:50.122Z,7.76
2022-12-28T18:56:20.548Z,7.77
2022-12-28T18:58:56.457Z,7.86
2022-12-28T19:04:17.109Z,7.86
2022-12-28T19:06:45.000Z,7.89
2022-12-28T19:09:14.921Z,7.78
2022-12-28T19:11:42.443Z,7.78
2022-12-28T19:14:13.376Z,7.88
2022-12-28T19:16:41.374Z,7.81
2022-12-28T19:19:08.442Z,7.84
2022-12-28T19:21:41.431Z,7.84
2022-12-28T19:24:19.417Z,7.78
2022-12-28T19:26:47.608Z,7.76
2022-12-28T19:29:16.276Z,7.75
2022-12-28T19:31:44.025Z,7.77
2022-12-28T19:34:11.308Z,7.73
2022-12-28T19:36:38.391Z,7.74
2022-12-28T19:39:05.783Z,7.70
2022-12-28T19:41:32.905Z,7.69
2022-12-28T19:44:00.194Z,7.66
2022-12-28T19:46:33.191Z,7.60
2022-12-28T19:49:03.265Z,7.64
2022-12-28T19:51:32.564Z,7.61
2022-12-28T19:54:01.766Z,7.59
2022-12-28T19:56:29.442Z,7.52
2022-12-28T19:59:03.149Z,7.55
2022-12-28T20:01:32.740Z,7.52
2022-12-28T20:04:04.454Z,7.59
2022-12-28T20:06:37.007Z,7.57
2022-12-28T20:09:04.684Z,7.52
2022-12-28T20:11:31.775Z,7.54
2022-12-28T20:14:02.793Z,7.48
2022-12-28T20:16:33.412Z,7.55
2022-12-28T20:19:06.891Z,7.55
2022-12-28T20:21:36.014Z,7.51
2022-12-28T20:24:04.447Z,7.50
2022-12-28T20:26:32.623Z,7.53
2022-12-28T20:29:01.913Z,7.52
2022-12-28T20:31:29.889Z,7.50
2022-12-28T20:33:57.492Z,7.53
2022-12-28T20:36:28.499Z,7.42
2022-12-28T20:38:56.755Z,7.43
2022-12-28T20:41:51.431Z,7.42
2022-12-28T20:44:30.367Z,7.42
2022-12-28T20:46:58.892Z,7.38
2022-12-28T20:49:28.148Z,7.42
2022-12-28T20:51:55.642Z,7.37
2022-12-28T20:54:23.953Z,7.34
2022-12-28T20:56:55.177Z,7.24
2022-12-28T20:59:24.736Z,7.29
2022-12-28T21:01:52.712Z,7.23
2022-12-28T21:04:20.081Z,7.17
2022-12-28T21:06:47.206Z,7.23
2022-12-28T21:09:14.483Z,7.22
2022-12-28T21:11:41.614Z,7.25
2022-12-28T21:14:08.938Z,7.20
2022-12-28T21:16:36.440Z,7.16
2022-12-28T21:19:03.886Z,7.10
2022-12-28T21:21:31.059Z,7.14
2022-12-28T21:24:00.985Z,7.19
2022-12-28T21:26:31.473Z,7.14
2022-12-28T21:28:59.628Z,7.17
2022-12-28T21:31:26.847Z,7.14
2022-12-28T21:33:57.214Z,7.25
2022-12-28T21:36:24.397Z,7.18
2022-12-28T21:38:51.536Z,7.21
2022-12-28T21:41:40.660Z,7.17
2022-12-28T21:44:13.847Z,7.22
2022-12-28T21:46:46.065Z,7.20
2022-12-28T21:49:13.481Z,7.25
2022-12-28T21:51:41.183Z,7.22
2022-12-28T21:54:14.300Z,7.17
2022-12-28T21:56:44.813Z,7.28
2022-12-28T21:59:13.625Z,7.27
2022-12-28T22:02:00.875Z,7.19
2022-12-28T22:04:47.355Z,7.22
2022-12-28T22:07:17.555Z,7.26
2022-12-28T22:10:06.530Z,7.19
2022-12-28T22:12:35.795Z,7.23
2022-12-28T22:15:33.980Z,7.19
2022-12-28T22:18:52.677Z,7.18
2022-12-28T22:21:05.162Z,7.25
2022-12-28T22:23:34.750Z,7.33
2022-12-28T22:26:03.384Z,7.26
2022-12-28T22:28:30.972Z,7.28
2022-12-28T22:30:58.130Z,7.32
2022-12-28T22:33:25.201Z,7.24
2022-12-28T22:35:52.257Z,7.28
2022-12-28T22:38:19.627Z,7.34
2022-12-28T22:40:56.983Z,7.37
2022-12-28T22:43:24.535Z,7.33
2022-12-28T22:46:06.055Z,7.43
2022-12-28T22:48:33.811Z,7.44
2022-12-28T22:51:12.000Z,7.46
2022-12-28T22:53:43.475Z,7.44
2022-12-28T22:56:19.739Z,7.44
2022-12-28T22:58:48.339Z,7.51
2022-12-28T23:01:19.827Z,7.53
2022-12-28T23:03:48.468Z,7.50
2022-12-28T23:06:19.891Z,7.51
2022-12-28T23:08:48.174Z,7.59
2022-12-28T23:11:39.031Z,7.66
2022-12-28T23:14:41.126Z,7.59
2022-12-28T23:17:14.859Z,7.64
2022-12-28T23:20:02.825Z,7.61
2022-12-28T23:22:52.480Z,7.60
2022-12-28T23:25:44.355Z,7.67
2022-12-28T23:28:15.803Z,7.69
2022-12-28T23:30:48.613Z,7.66
2022-12-28T23:33:18.627Z,7.73
2022-12-28T23:35:46.820Z,7.73
2022-12-28T23:38:13.939Z,7.78
2022-12-28T23:40:42.005Z,7.75
2022-12-28T23:43:09.197Z,7.82
2022-12-28T23:45:37.857Z,7.84
2022-12-28T23:48:10.804Z,7.76
2022-12-28T23:50:38.459Z,7.82
2022-12-28T23:53:05.942Z,7.85
2022-12-28T23:55:35.332Z,7.87
2022-12-28T23:58:02.419Z,7.84
